sensor_id;sensor_type;location;lat;lon;timestamp;pressure;altitude;pressure_sealevel;temperature
15333;BMP180;7766;51.534;6.722;2023-01-05T00:00:25;100984.53;;;12.24
15333;BMP180;7766;51.534;6.722;2023-01-05T00:01:26;100991.41;;;12.25
15333;BMP180;7766;51.534;6.722;2023-01-05T00:02:28;100985.34;;;12.25
15333;BMP180;7766;51.534;6.722;2023-01-05T00:03:30;100998.53;;;12.25
15333;BMP180;7766;51.534;6.722;2023-01-05T00:04:31;100993.78;;;12.21
15333;BMP180;7766;51.534;6.722;2023-01-05T00:05:32;101003.50;;;12.20
15333;BMP180;7766;51.534;6.722;2023-01-05T00:06:33;100997.50;;;12.26
15333;BMP180;7766;51.534;6.722;2023-01-05T00:07:34;100995.88;;;12.25
15333;BMP180;7766;51.534;6.722;2023-01-05T00:08:35;100991.63;;;12.24
15333;BMP180;7766;51.534;6.722;2023-01-05T00:09:36;100981.06;;;12.24
15333;BMP180;7766;51.534;6.722;2023-01-05T00:10:38;100994.25;;;12.24
15333;BMP180;7766;51.534;6.722;2023-01-05T00:11:58;100991.63;;;12.24
15333;BMP180;7766;51.534;6.722;2023-01-05T00:13:17;100994.06;;;12.25
15333;BMP180;7766;51.534;6.722;2023-01-05T00:14:41;100999.06;;;12.21
15333;BMP180;7766;51.534;6.722;2023-01-05T00:16:21;100995.50;;;12.28
15333;BMP180;7766;51.534;6.722;2023-01-05T00:17:40;100999.31;;;12.25
15333;BMP180;7766;51.534;6.722;2023-01-05T00:18:59;100994.25;;;12.24
15333;BMP180;7766;51.534;6.722;2023-01-05T00:20:20;101007.69;;;12.29
15333;BMP180;7766;51.534;6.722;2023-01-05T00:21:40;100995.50;;;12.28
15333;BMP180;7766;51.534;6.722;2023-01-05T00:23:00;101008.03;;;12.26
15333;BMP180;7766;51.534;6.722;2023-01-05T00:24:01;101007.41;;;12.24
15333;BMP180;7766;51.534;6.722;2023-01-05T00:25:06;101002.16;;;12.24
15333;BMP180;7766;51.534;6.722;2023-01-05T00:26:07;101002.78;;;12.26
15333;BMP180;7766;51.534;6.722;2023-01-05T00:27:08;101007.31;;;12.32
15333;BMP180;7766;51.534;6.722;2023-01-05T00:28:09;100996.69;;;12.25
15333;BMP180;7766;51.534;6.722;2023-01-05T00:29:10;101008.03;;;12.26
15333;BMP180;7766;51.534;6.722;2023-01-05T00:30:13;101004.78;;;12.24
15333;BMP180;7766;51.534;6.722;2023-01-05T00:31:14;101001.53;;;12.22
15333;BMP180;7766;51.534;6.722;2023-01-05T00:32:15;101004.59;;;12.25
15333;BMP180;7766;51.534;6.722;2023-01-05T00:33:17;101004.06;;;12.30
15333;BMP180;7766;51.534;6.722;2023-01-05T00:34:18;101017.84;;;12.32
15333;BMP180;7766;51.534;6.722;2023-01-05T00:35:19;101015.69;;;12.21
15333;BMP180;7766;51.534;6.722;2023-01-05T00:36:20;101012.06;;;12.22
15333;BMP180;7766;51.534;6.722;2023-01-05T00:37:23;101011.03;;;12.23
15333;BMP180;7766;51.534;6.722;2023-01-05T00:38:23;100997.03;;;12.22
15333;BMP180;7766;51.534;6.722;2023-01-05T00:39:24;101005.88;;;12.15
15333;BMP180;7766;51.534;6.722;2023-01-05T00:40:25;100995.81;;;12.19
15333;BMP180;7766;51.534;6.722;2023-01-05T00:41:26;101002.06;;;12.18
15333;BMP180;7766;51.534;6.722;2023-01-05T00:42:27;101010.16;;;12.16
15333;BMP180;7766;51.534;6.722;2023-01-05T00:43:28;101011.34;;;12.14
15333;BMP180;7766;51.534;6.722;2023-01-05T00:44:29;101010.88;;;12.10
15333;BMP180;7766;51.534;6.722;2023-01-05T00:45:30;101003.81;;;12.11
15333;BMP180;7766;51.534;6.722;2023-01-05T00:46:31;101011.88;;;12.09
15333;BMP180;7766;51.534;6.722;2023-01-05T00:47:32;101010.88;;;12.10
15333;BMP180;7766;51.534;6.722;2023-01-05T00:48:33;101023.50;;;12.15
15333;BMP180;7766;51.534;6.722;2023-01-05T00:49:35;101009.97;;;12.18
15333;BMP180;7766;51.534;6.722;2023-01-05T00:50:36;101009.09;;;12.11
15333;BMP180;7766;51.534;6.722;2023-01-05T00:51:37;101006.91;;;12.14
15333;BMP180;7766;51.534;6.722;2023-01-05T00:52:38;101009.91;;;12.11
15333;BMP180;7766;51.534;6.722;2023-01-05T00:53:39;101019.97;;;12.08
15333;BMP180;7766;51.534;6.722;2023-01-05T00:54:40;101007.38;;;12.04
15333;BMP180;7766;51.534;6.722;2023-01-05T00:55:41;101012.06;;;12.08
15333;BMP180;7766;51.534;6.722;2023-01-05T00:56:42;101017.44;;;12.14
15333;BMP180;7766;51.534;6.722;2023-01-05T00:57:42;101020.81;;;12.08
15333;BMP180;7766;51.534;6.722;2023-01-05T00:58:43;101026.06;;;12.08
15333;BMP180;7766;51.534;6.722;2023-01-05T00:59:44;101016.06;;;12.04
15333;BMP180;7766;51.534;6.722;2023-01-05T01:00:45;101028.06;;;12.06
15333;BMP180;7766;51.534;6.722;2023-01-05T01:01:50;101022.00;;;12.06
15333;BMP180;7766;51.534;6.722;2023-01-05T01:02:51;101006.81;;;12.08
15333;BMP180;7766;51.534;6.722;2023-01-05T01:03:52;101021.63;;;12.09
15333;BMP180;7766;51.534;6.722;2023-01-05T01:04:54;101012.06;;;12.08
15333;BMP180;7766;51.534;6.722;2023-01-05T01:05:58;101015.16;;;12.11
15333;BMP180;7766;51.534;6.722;2023-01-05T01:06:59;101011.88;;;12.09
15333;BMP180;7766;51.534;6.722;2023-01-05T01:08:00;101011.88;;;12.09
15333;BMP180;7766;51.534;6.722;2023-01-05T01:09:01;101020.59;;;12.10
15333;BMP180;7766;51.534;6.722;2023-01-05T01:10:03;101012.91;;;12.08
15333;BMP180;7766;51.534;6.722;2023-01-05T01:11:05;101007.81;;;12.07
15333;BMP180;7766;51.534;6.722;2023-01-05T01:12:07;101014.72;;;12.08
15333;BMP180;7766;51.534;6.722;2023-01-05T01:13:08;101017.91;;;12.04
15333;BMP180;7766;51.534;6.722;2023-01-05T01:14:10;101007.72;;;12.01
15333;BMP180;7766;51.534;6.722;2023-01-05T01:15:12;101012.63;;;12.04
15333;BMP180;7766;51.534;6.722;2023-01-05T01:16:14;101001.03;;;11.98
15333;BMP180;7766;51.534;6.722;2023-01-05T01:17:16;101007.91;;;11.99
15333;BMP180;7766;51.534;6.722;2023-01-05T01:18:17;101010.63;;;12.06
15333;BMP180;7766;51.534;6.722;2023-01-05T01:19:20;100998.66;;;12.03
15333;BMP180;7766;51.534;6.722;2023-01-05T01:20:22;101006.56;;;12.03
15333;BMP180;7766;51.534;6.722;2023-01-05T01:21:23;101012.44;;;12.05
15333;BMP180;7766;51.534;6.722;2023-01-05T01:22:24;101010.06;;;12.10
15333;BMP180;7766;51.534;6.722;2023-01-05T01:23:25;101010.00;;;12.04
15333;BMP180;7766;51.534;6.722;2023-01-05T01:24:27;101006.19;;;12.06
15333;BMP180;7766;51.534;6.722;2023-01-05T01:25:28;101019.53;;;12.05
15333;BMP180;7766;51.534;6.722;2023-01-05T01:26:29;101018.78;;;12.10
15333;BMP180;7766;51.534;6.722;2023-01-05T01:27:31;101012.28;;;12.06
15333;BMP180;7766;51.534;6.722;2023-01-05T01:28:32;101022.16;;;12.05
15333;BMP180;7766;51.534;6.722;2023-01-05T01:29:33;101020.81;;;12.08
15333;BMP180;7766;51.534;6.722;2023-01-05T01:30:37;101015.44;;;12.02
15333;BMP180;7766;51.534;6.722;2023-01-05T01:31:38;101022.25;;;12.11
15333;BMP180;7766;51.534;6.722;2023-01-05T01:32:39;101023.06;;;12.11
15333;BMP180;7766;51.534;6.722;2023-01-05T01:33:40;101014.34;;;12.11
15333;BMP180;7766;51.534;6.722;2023-01-05T01:34:41;101019.63;;;12.11
15333;BMP180;7766;51.534;6.722;2023-01-05T01:35:43;101031.97;;;12.10
15333;BMP180;7766;51.534;6.722;2023-01-05T01:36:44;101026.97;;;12.15
15333;BMP180;7766;51.534;6.722;2023-01-05T01:37:45;101026.13;;;12.15
15333;BMP180;7766;51.534;6.722;2023-01-05T01:38:46;101026.13;;;12.15
15333;BMP180;7766;51.534;6.722;2023-01-05T01:39:47;101036.66;;;12.15
15333;BMP180;7766;51.534;6.722;2023-01-05T01:40:49;101031.41;;;12.15
15333;BMP180;7766;51.534;6.722;2023-01-05T01:41:50;101030.97;;;12.11
15333;BMP180;7766;51.534;6.722;2023-01-05T01:42:51;101031.78;;;12.12
15333;BMP180;7766;51.534;6.722;2023-01-05T01:43:56;101031.59;;;12.13
15333;BMP180;7766;51.534;6.722;2023-01-05T01:45:00;101027.25;;;12.06
15333;BMP180;7766;51.534;6.722;2023-01-05T01:46:01;101037.59;;;12.07
15333;BMP180;7766;51.534;6.722;2023-01-05T01:47:02;101038.63;;;12.06
15333;BMP180;7766;51.534;6.722;2023-01-05T01:48:03;101037.22;;;12.10
15333;BMP180;7766;51.534;6.722;2023-01-05T01:49:07;101037.06;;;12.12
15333;BMP180;7766;51.534;6.722;2023-01-05T01:50:26;101038.22;;;12.09
15333;BMP180;7766;51.534;6.722;2023-01-05T01:51:32;101050.41;;;12.10
15333;BMP180;7766;51.534;6.722;2023-01-05T01:52:35;101048.84;;;12.16
15333;BMP180;7766;51.534;6.722;2023-01-05T01:53:41;101043.06;;;12.06
15333;BMP180;7766;51.534;6.722;2023-01-05T01:54:42;101040.94;;;12.02
15333;BMP180;7766;51.534;6.722;2023-01-05T01:55:45;101047.97;;;11.95
15333;BMP180;7766;51.534;6.722;2023-01-05T01:56:52;101058.28;;;11.96
15333;BMP180;7766;51.534;6.722;2023-01-05T01:57:54;101050.69;;;12.01
15333;BMP180;7766;51.534;6.722;2023-01-05T01:58:56;101049.41;;;11.97
15333;BMP180;7766;51.534;6.722;2023-01-05T01:59:59;101053.75;;;12.05
15333;BMP180;7766;51.534;6.722;2023-01-05T02:01:02;101067.47;;;12.00
15333;BMP180;7766;51.534;6.722;2023-01-05T02:02:03;101074.81;;;12.05
15333;BMP180;7766;51.534;6.722;2023-01-05T02:03:06;101071.84;;;12.07
15333;BMP180;7766;51.534;6.722;2023-01-05T02:04:09;101066.41;;;12.09
15333;BMP180;7766;51.534;6.722;2023-01-05T02:05:12;101068.56;;;12.06
15333;BMP180;7766;51.534;6.722;2023-01-05T02:06:15;101061.28;;;12.07
15333;BMP180;7766;51.534;6.722;2023-01-05T02:07:17;101063.94;;;12.07
15333;BMP180;7766;51.534;6.722;2023-01-05T02:08:18;101059.28;;;12.09
15333;BMP180;7766;51.534;6.722;2023-01-05T02:09:25;101079.38;;;12.10
15333;BMP180;7766;51.534;6.722;2023-01-05T02:12:17;101074.81;;;12.05
15333;BMP180;7766;51.534;6.722;2023-01-05T02:15:17;101077.38;;;11.98
15333;BMP180;7766;51.534;6.722;2023-01-05T02:18:10;101082.34;;;11.93
15333;BMP180;7766;51.534;6.722;2023-01-05T02:19:50;101078.66;;;11.88
15333;BMP180;7766;51.534;6.722;2023-01-05T02:21:10;101074.38;;;11.87
15333;BMP180;7766;51.534;6.722;2023-01-05T02:23:30;101070.66;;;11.96
15333;BMP180;7766;51.534;6.722;2023-01-05T02:28:08;101076.81;;;11.89
15333;BMP180;7766;51.534;6.722;2023-01-05T02:29:37;101072.47;;;11.81
15333;BMP180;7766;51.534;6.722;2023-01-05T02:31:07;101072.09;;;11.84
15333;BMP180;7766;51.534;6.722;2023-01-05T02:32:26;101072.72;;;11.86
15333;BMP180;7766;51.534;6.722;2023-01-05T02:36:29;101076.03;;;11.88
15333;BMP180;7766;51.534;6.722;2023-01-05T02:38:36;101076.75;;;11.82
15333;BMP180;7766;51.534;6.722;2023-01-05T02:39:56;101081.09;;;11.90
15333;BMP180;7766;51.534;6.722;2023-01-05T02:41:05;101067.38;;;11.94
15333;BMP180;7766;51.534;6.722;2023-01-05T02:42:13;101081.38;;;11.94
15333;BMP180;7766;51.534;6.722;2023-01-05T02:43:17;101087.81;;;11.92
15333;BMP180;7766;51.534;6.722;2023-01-05T02:44:20;101083.19;;;11.94
15333;BMP180;7766;51.534;6.722;2023-01-05T02:45:22;101092.72;;;11.95
15333;BMP180;7766;51.534;6.722;2023-01-05T02:46:23;101082.91;;;11.89
15333;BMP180;7766;51.534;6.722;2023-01-05T02:48:24;101084.56;;;11.90
15333;BMP180;7766;51.534;6.722;2023-01-05T02:49:26;101083.84;;;11.96
15333;BMP180;7766;51.534;6.722;2023-01-05T02:50:36;101076.22;;;12.01
15333;BMP180;7766;51.534;6.722;2023-01-05T02:51:45;101091.91;;;11.94
15333;BMP180;7766;51.534;6.722;2023-01-05T02:53:06;101081.56;;;11.93
15333;BMP180;7766;51.534;6.722;2023-01-05T02:54:10;101085.75;;;11.88
15333;BMP180;7766;51.534;6.722;2023-01-05T02:55:18;101076.03;;;11.88
15333;BMP180;7766;51.534;6.722;2023-01-05T02:56:27;101070.66;;;11.96
15333;BMP180;7766;51.534;6.722;2023-01-05T02:57:36;101084.00;;;11.94
15333;BMP180;7766;51.534;6.722;2023-01-05T02:59:10;101067.22;;;11.95
15333;BMP180;7766;51.534;6.722;2023-01-05T03:00:43;101074.38;;;11.87
15333;BMP180;7766;51.534;6.722;2023-01-05T03:01:51;101084.19;;;11.93
15333;BMP180;7766;51.534;6.722;2023-01-05T03:03:01;101078.09;;;11.92
15333;BMP180;7766;51.534;6.722;2023-01-05T03:04:23;101090.09;;;11.95
15333;BMP180;7766;51.534;6.722;2023-01-05T03:05:32;101079.66;;;11.87
15333;BMP180;7766;51.534;6.722;2023-01-05T03:06:53;101085.44;;;11.97
15333;BMP180;7766;51.534;6.722;2023-01-05T03:07:56;101079.28;;;11.90
15333;BMP180;7766;51.534;6.722;2023-01-05T03:09:07;101089.34;;;11.87
15333;BMP180;7766;51.534;6.722;2023-01-05T03:10:09;101084.09;;;11.87
15333;BMP180;7766;51.534;6.722;2023-01-05T03:11:44;101085.91;;;11.86
15333;BMP180;7766;51.534;6.722;2023-01-05T03:13:09;101088.53;;;11.86
15333;BMP180;7766;51.534;6.722;2023-01-05T03:14:36;101083.97;;;11.80
15333;BMP180;7766;51.534;6.722;2023-01-05T03:15:39;101085.00;;;11.79
15333;BMP180;7766;51.534;6.722;2023-01-05T03:16:44;101088.34;;;11.74
15333;BMP180;7766;51.534;6.722;2023-01-05T03:17:59;101094.50;;;11.80
15333;BMP180;7766;51.534;6.722;2023-01-05T03:19:08;101079.09;;;11.77
15333;BMP180;7766;51.534;6.722;2023-01-05T03:20:32;101083.09;;;11.74
15333;BMP180;7766;51.534;6.722;2023-01-05T03:21:34;101096.88;;;11.75
15333;BMP180;7766;51.534;6.722;2023-01-05T03:22:57;101089.69;;;11.70
15333;BMP180;7766;51.534;6.722;2023-01-05T03:24:17;101102.84;;;11.70
15333;BMP180;7766;51.534;6.722;2023-01-05T03:25:38;101103.78;;;11.76
15333;BMP180;7766;51.534;6.722;2023-01-05T03:26:58;101102.56;;;11.65
15333;BMP180;7766;51.534;6.722;2023-01-05T03:28:23;101100.97;;;11.64
15333;BMP180;7766;51.534;6.722;2023-01-05T03:29:44;101094.94;;;11.56
15333;BMP180;7766;51.534;6.722;2023-01-05T03:31:20;101100.00;;;11.57
15333;BMP180;7766;51.534;6.722;2023-01-05T03:33:09;101096.22;;;11.59
15333;BMP180;7766;51.534;6.722;2023-01-05T03:34:52;101097.22;;;11.58
15333;BMP180;7766;51.534;6.722;2023-01-05T03:36:15;101090.84;;;11.53
15333;BMP180;7766;51.534;6.722;2023-01-05T03:37:25;101095.31;;;11.53
15333;BMP180;7766;51.534;6.722;2023-01-05T03:38:28;101107.34;;;11.47
15333;BMP180;7766;51.534;6.722;2023-01-05T03:39:32;101097.09;;;11.52
15333;BMP180;7766;51.534;6.722;2023-01-05T03:40:35;101092.81;;;11.51
15333;BMP180;7766;51.534;6.722;2023-01-05T03:41:38;101099.03;;;11.58
15333;BMP180;7766;51.534;6.722;2023-01-05T03:42:40;101108.19;;;11.62
15333;BMP180;7766;51.534;6.722;2023-01-05T03:43:42;101102.91;;;11.62
15333;BMP180;7766;51.534;6.722;2023-01-05T03:44:45;101100.97;;;11.64
15333;BMP180;7766;51.534;6.722;2023-01-05T03:45:52;101100.75;;;11.65
15333;BMP180;7766;51.534;6.722;2023-01-05T03:46:53;101099.31;;;11.63
15333;BMP180;7766;51.534;6.722;2023-01-05T03:47:54;101104.00;;;11.53
15333;BMP180;7766;51.534;6.722;2023-01-05T03:48:55;101099.03;;;11.58
15333;BMP180;7766;51.534;6.722;2023-01-05T03:49:56;101101.81;;;11.57
15333;BMP180;7766;51.534;6.722;2023-01-05T03:50:57;101097.56;;;11.56
15333;BMP180;7766;51.534;6.722;2023-01-05T03:51:59;101101.03;;;11.56
15333;BMP180;7766;51.534;6.722;2023-01-05T03:52:59;101084.50;;;11.62
15333;BMP180;7766;51.534;6.722;2023-01-05T03:54:00;101097.38;;;11.57
15333;BMP180;7766;51.534;6.722;2023-01-05T03:55:01;101099.66;;;11.60
15333;BMP180;7766;51.534;6.722;2023-01-05T03:56:03;101099.03;;;11.58
15333;BMP180;7766;51.534;6.722;2023-01-05T03:57:03;101104.38;;;11.50
15333;BMP180;7766;51.534;6.722;2023-01-05T03:58:04;101101.03;;;11.56
15333;BMP180;7766;51.534;6.722;2023-01-05T03:59:05;101098.69;;;11.61
15333;BMP180;7766;51.534;6.722;2023-01-05T04:00:07;101091.97;;;11.58
15333;BMP180;7766;51.534;6.722;2023-01-05T04:01:08;101094.47;;;11.52
15333;BMP180;7766;51.534;6.722;2023-01-05T04:02:09;101097.66;;;11.48
15333;BMP180;7766;51.534;6.722;2023-01-05T04:03:10;101101.81;;;11.57
15333;BMP180;7766;51.534;6.722;2023-01-05T04:04:11;101104.28;;;11.58
15333;BMP180;7766;51.534;6.722;2023-01-05T04:05:12;101094.94;;;11.56
15333;BMP180;7766;51.534;6.722;2023-01-05T04:06:13;101102.00;;;11.55
15333;BMP180;7766;51.534;6.722;2023-01-05T04:07:14;101102.56;;;11.51
15333;BMP180;7766;51.534;6.722;2023-01-05T04:08:15;101091.03;;;11.52
15333;BMP180;7766;51.534;6.722;2023-01-05T04:09:16;101091.56;;;11.47
15333;BMP180;7766;51.534;6.722;2023-01-05T04:10:17;101105.53;;;11.48
15333;BMP180;7766;51.534;6.722;2023-01-05T04:11:20;101098.56;;;11.55
15333;BMP180;7766;51.534;6.722;2023-01-05T04:12:22;101099.56;;;11.54
15333;BMP180;7766;51.534;6.722;2023-01-05T04:13:23;101103.00;;;11.54
15333;BMP180;7766;51.534;6.722;2023-01-05T04:14:24;101102.66;;;11.57
15333;BMP180;7766;51.534;6.722;2023-01-05T04:15:25;101097.47;;;11.49
15333;BMP180;7766;51.534;6.722;2023-01-05T04:16:26;101114.06;;;11.50
15333;BMP180;7766;51.534;6.722;2023-01-05T04:17:28;101113.31;;;11.42
15333;BMP180;7766;51.534;6.722;2023-01-05T04:18:29;101103.44;;;11.43
15333;BMP180;7766;51.534;6.722;2023-01-05T04:19:30;101109.00;;;11.48
15333;BMP180;7766;51.534;6.722;2023-01-05T04:20:31;101102.63;;;11.43
15333;BMP180;7766;51.534;6.722;2023-01-05T04:21:32;101109.34;;;11.45
15333;BMP180;7766;51.534;6.722;2023-01-05T04:22:32;101100.78;;;11.43
15333;BMP180;7766;51.534;6.722;2023-01-05T04:23:34;101108.88;;;11.42
15333;BMP180;7766;51.534;6.722;2023-01-05T04:24:35;101106.06;;;11.43
15333;BMP180;7766;51.534;6.722;2023-01-05T04:25:36;101095.78;;;11.34
15333;BMP180;7766;51.534;6.722;2023-01-05T04:26:37;101099.25;;;11.35
15333;BMP180;7766;51.534;6.722;2023-01-05T04:27:39;101107.22;;;11.41
15333;BMP180;7766;51.534;6.722;2023-01-05T04:28:40;101108.19;;;11.48
15333;BMP180;7766;51.534;6.722;2023-01-05T04:29:41;101094.34;;;11.46
15333;BMP180;7766;51.534;6.722;2023-01-05T04:30:48;101114.97;;;11.43
15333;BMP180;7766;51.534;6.722;2023-01-05T04:31:49;101113.59;;;11.46
15333;BMP180;7766;51.534;6.722;2023-01-05T04:32:50;101113.25;;;11.49
15333;BMP180;7766;51.534;6.722;2023-01-05T04:33:51;101111.44;;;11.50
15333;BMP180;7766;51.534;6.722;2023-01-05T04:34:52;101121.50;;;11.46
15333;BMP180;7766;51.534;6.722;2023-01-05T04:35:53;101114.25;;;11.48
15333;BMP180;7766;51.534;6.722;2023-01-05T04:36:54;101114.97;;;11.43
15333;BMP180;7766;51.534;6.722;2023-01-05T04:37:55;101102.72;;;11.49
15333;BMP180;7766;51.534;6.722;2023-01-05T04:38:56;101119.41;;;11.42
15333;BMP180;7766;51.534;6.722;2023-01-05T04:39:57;101111.78;;;11.47
15333;BMP180;7766;51.534;6.722;2023-01-05T04:40:58;101116.91;;;11.48
15333;BMP180;7766;51.534;6.722;2023-01-05T04:41:59;101101.38;;;11.53
15333;BMP180;7766;51.534;6.722;2023-01-05T04:43:00;101113.88;;;11.51
15333;BMP180;7766;51.534;6.722;2023-01-05T04:44:01;101115.88;;;11.49
15333;BMP180;7766;51.534;6.722;2023-01-05T04:45:02;101116.69;;;11.50
15333;BMP180;7766;51.534;6.722;2023-01-05T04:46:03;101119.53;;;11.48
15333;BMP180;7766;51.534;6.722;2023-01-05T04:47:04;101119.53;;;11.48
15333;BMP180;7766;51.534;6.722;2023-01-05T04:48:05;101109.28;;;11.53
15333;BMP180;7766;51.534;6.722;2023-01-05T04:49:08;101120.44;;;11.55
15333;BMP180;7766;51.534;6.722;2023-01-05T04:50:09;101124.06;;;11.54
15333;BMP180;7766;51.534;6.722;2023-01-05T04:51:10;101123.41;;;11.52
15333;BMP180;7766;51.534;6.722;2023-01-05T04:52:11;101115.88;;;11.49
15333;BMP180;7766;51.534;6.722;2023-01-05T04:53:12;101118.50;;;11.49
15333;BMP180;7766;51.534;6.722;2023-01-05T04:54:13;101112.91;;;11.52
15333;BMP180;7766;51.534;6.722;2023-01-05T04:55:14;101110.97;;;11.46
15333;BMP180;7766;51.534;6.722;2023-01-05T04:56:15;101116.59;;;11.43
15333;BMP180;7766;51.534;6.722;2023-01-05T04:57:16;101117.53;;;11.50
15333;BMP180;7766;51.534;6.722;2023-01-05T04:58:18;101115.81;;;11.57
15333;BMP180;7766;51.534;6.722;2023-01-05T04:59:20;101115.88;;;11.49
15333;BMP180;7766;51.534;6.722;2023-01-05T05:00:21;101113.59;;;11.46
15333;BMP180;7766;51.534;6.722;2023-01-05T05:01:22;101118.22;;;11.44
15333;BMP180;7766;51.534;6.722;2023-01-05T05:02:23;101108.59;;;11.37
15333;BMP180;7766;51.534;6.722;2023-01-05T05:03:24;101116.97;;;11.41
15333;BMP180;7766;51.534;6.722;2023-01-05T05:04:25;101128.13;;;11.43
15333;BMP180;7766;51.534;6.722;2023-01-05T05:05:26;101120.31;;;11.49
15333;BMP180;7766;51.534;6.722;2023-01-05T05:06:27;101123.50;;;11.44
15333;BMP180;7766;51.534;6.722;2023-01-05T05:07:28;101130.13;;;11.41
15333;BMP180;7766;51.534;6.722;2023-01-05T05:08:29;101124.03;;;11.40
15333;BMP180;7766;51.534;6.722;2023-01-05T05:09:30;101129.09;;;11.42
15333;BMP180;7766;51.534;6.722;2023-01-05T05:10:31;101124.19;;;11.39
15333;BMP180;7766;51.534;6.722;2023-01-05T05:11:33;101129.28;;;11.40
15333;BMP180;7766;51.534;6.722;2023-01-05T05:12:33;101131.09;;;11.40
15333;BMP180;7766;51.534;6.722;2023-01-05T05:13:34;101137.00;;;11.42
15333;BMP180;7766;51.534;6.722;2023-01-05T05:14:35;101134.84;;;11.45
15333;BMP180;7766;51.534;6.722;2023-01-05T05:15:36;101136.66;;;11.44
15333;BMP180;7766;51.534;6.722;2023-01-05T05:16:37;101135.31;;;11.48
15333;BMP180;7766;51.534;6.722;2023-01-05T05:17:38;101152.25;;;11.46
15333;BMP180;7766;51.534;6.722;2023-01-05T05:18:39;101136.28;;;11.47
15333;BMP180;7766;51.534;6.722;2023-01-05T05:19:41;101132.91;;;11.39
15333;BMP180;7766;51.534;6.722;2023-01-05T05:20:43;101139.28;;;11.44
15333;BMP180;7766;51.534;6.722;2023-01-05T05:21:45;101141.28;;;11.43
15333;BMP180;7766;51.534;6.722;2023-01-05T05:22:46;101140.38;;;11.50
15333;BMP180;7766;51.534;6.722;2023-01-05T05:23:47;101146.13;;;11.53
15333;BMP180;7766;51.534;6.722;2023-01-05T05:24:48;101155.53;;;11.48
15333;BMP180;7766;51.534;6.722;2023-01-05T05:25:53;101146.19;;;11.45
15333;BMP180;7766;51.534;6.722;2023-01-05T05:26:53;101138.66;;;11.43
15333;BMP180;7766;51.534;6.722;2023-01-05T05:27:54;101143.72;;;11.44
15333;BMP180;7766;51.534;6.722;2023-01-05T05:28:57;101146.88;;;11.40
15333;BMP180;7766;51.534;6.722;2023-01-05T05:29:59;101149.03;;;11.36
15333;BMP180;7766;51.534;6.722;2023-01-05T05:31:00;101149.22;;;11.35
15333;BMP180;7766;51.534;6.722;2023-01-05T05:32:01;101152.16;;;11.40
15333;BMP180;7766;51.534;6.722;2023-01-05T05:33:02;101151.78;;;11.43
15333;BMP180;7766;51.534;6.722;2023-01-05T05:34:03;101151.44;;;11.45
15333;BMP180;7766;51.534;6.722;2023-01-05T05:35:04;101159.63;;;11.50
15333;BMP180;7766;51.534;6.722;2023-01-05T05:36:06;101152.09;;;11.47
15333;BMP180;7766;51.534;6.722;2023-01-05T05:37:07;101147.16;;;11.44
15333;BMP180;7766;51.534;6.722;2023-01-05T05:38:08;101151.72;;;11.50
15333;BMP180;7766;51.534;6.722;2023-01-05T05:39:11;101162.53;;;11.55
15333;BMP180;7766;51.534;6.722;2023-01-05T05:40:12;101159.63;;;11.50
15333;BMP180;7766;51.534;6.722;2023-01-05T05:41:13;101162.59;;;11.47
15333;BMP180;7766;51.534;6.722;2023-01-05T05:42:14;101162.41;;;11.49
15333;BMP180;7766;51.534;6.722;2023-01-05T05:43:15;101159.00;;;11.48
15333;BMP180;7766;51.534;6.722;2023-01-05T05:44:16;101162.13;;;11.44
15333;BMP180;7766;51.534;6.722;2023-01-05T05:45:17;101162.97;;;11.44
15333;BMP180;7766;51.534;6.722;2023-01-05T05:46:18;101163.94;;;11.43
15333;BMP180;7766;51.534;6.722;2023-01-05T05:47:19;101167.59;;;11.43
15333;BMP180;7766;51.534;6.722;2023-01-05T05:48:20;101168.91;;;11.39
15333;BMP180;7766;51.534;6.722;2023-01-05T05:49:21;101168.22;;;11.44
15333;BMP180;7766;51.534;6.722;2023-01-05T05:50:22;101169.53;;;11.48
15333;BMP180;7766;51.534;6.722;2023-01-05T05:51:24;101179.09;;;11.42
15333;BMP180;7766;51.534;6.722;2023-01-05T05:52:25;101174.84;;;11.41
15333;BMP180;7766;51.534;6.722;2023-01-05T05:53:26;101175.47;;;11.43
15333;BMP180;7766;51.534;6.722;2023-01-05T05:54:27;101182.06;;;11.39
15333;BMP180;7766;51.534;6.722;2023-01-05T05:55:28;101173.53;;;11.37
15333;BMP180;7766;51.534;6.722;2023-01-05T05:56:29;101178.81;;;11.37
15333;BMP180;7766;51.534;6.722;2023-01-05T05:57:30;101179.72;;;11.43
15333;BMP180;7766;51.534;6.722;2023-01-05T05:58:31;101173.72;;;11.35
15333;BMP180;7766;51.534;6.722;2023-01-05T05:59:32;101181.84;;;11.26
15333;BMP180;7766;51.534;6.722;2023-01-05T06:00:33;101176.22;;;11.29
15333;BMP180;7766;51.534;6.722;2023-01-05T06:01:34;101176.38;;;11.27
15333;BMP180;7766;51.534;6.722;2023-01-05T06:02:35;101176.22;;;11.29
15333;BMP180;7766;51.534;6.722;2023-01-05T06:03:36;101184.41;;;11.34
15333;BMP180;7766;51.534;6.722;2023-01-05T06:04:37;101185.41;;;11.33
15333;BMP180;7766;51.534;6.722;2023-01-05T06:05:38;101185.38;;;11.41
15333;BMP180;7766;51.534;6.722;2023-01-05T06:06:39;101190.25;;;11.43
15333;BMP180;7766;51.534;6.722;2023-01-05T06:07:39;101185.53;;;11.39
15333;BMP180;7766;51.534;6.722;2023-01-05T06:08:40;101188.69;;;11.35
15333;BMP180;7766;51.534;6.722;2023-01-05T06:09:41;101194.88;;;11.42
15333;BMP180;7766;51.534;6.722;2023-01-05T06:10:42;101194.94;;;11.34
15333;BMP180;7766;51.534;6.722;2023-01-05T06:11:43;101192.03;;;11.29
15333;BMP180;7766;51.534;6.722;2023-01-05T06:12:44;101191.53;;;11.26
15333;BMP180;7766;51.534;6.722;2023-01-05T06:13:45;101197.91;;;11.31
15333;BMP180;7766;51.534;6.722;2023-01-05T06:14:48;101191.78;;;11.38
15333;BMP180;7766;51.534;6.722;2023-01-05T06:15:49;101199.28;;;11.27
15333;BMP180;7766;51.534;6.722;2023-01-05T06:16:50;101207.44;;;11.32
15333;BMP180;7766;51.534;6.722;2023-01-05T06:17:51;101209.19;;;11.39
15333;BMP180;7766;51.534;6.722;2023-01-05T06:18:53;101203.59;;;11.42
15333;BMP180;7766;51.534;6.722;2023-01-05T06:19:53;101200.91;;;11.50
15333;BMP180;7766;51.534;6.722;2023-01-05T06:20:54;101202.44;;;11.44
15333;BMP180;7766;51.534;6.722;2023-01-05T06:21:55;101203.25;;;11.45
15333;BMP180;7766;51.534;6.722;2023-01-05T06:22:56;101209.19;;;11.39
15333;BMP180;7766;51.534;6.722;2023-01-05T06:23:57;101204.22;;;11.44
15333;BMP180;7766;51.534;6.722;2023-01-05T06:24:58;101204.28;;;11.36
15333;BMP180;7766;51.534;6.722;2023-01-05T06:25:59;101202.25;;;11.16